Time;durP1;ratioP1;P1;durP2;ratioP2;P2;SDS_P1;SDS_P2;PMS_P1;PMS_P2;Temp;Humidity;BMP_temperature;BMP_pressure;BME280_temperature;BME280_humidity;BME280_pressure;Samples;Min_cycle;Max_cycle;Signal;HPM_P1;HPM_P2
2022/09/25 00:01:20;;;;;;;23.73;20.52;;;10.60;99.90;;;;;;5049969;28;20021;-82
2022/09/25 00:03:46;;;;;;;22.02;18.85;;;10.60;99.90;;;;;;5050116;28;20021;-83
2022/09/25 00:06:18;;;;;;;21.88;18.95;;;10.60;99.90;;;;;;5049687;28;20025;-82
2022/09/25 00:08:44;;;;;;;21.80;18.90;;;10.60;99.90;;;;;;5049106;28;20050;-82
2022/09/25 00:11:13;;;;;;;22.42;19.45;;;10.60;99.90;;;;;;5049324;28;20495;-82
2022/09/25 00:13:39;;;;;;;20.20;17.90;;;10.60;99.90;;;;;;5049652;28;20033;-82
2022/09/25 00:16:07;;;;;;;18.70;16.70;;;10.50;99.90;;;;;;5047633;28;20086;-82
2022/09/25 00:21:18;;;;;;;20.20;15.98;;;10.40;99.90;;;;;;5049382;28;20032;-83
2022/09/25 00:23:44;;;;;;;18.20;15.05;;;10.30;99.90;;;;;;5049400;28;20104;-82
2022/09/25 00:26:12;;;;;;;19.75;16.33;;;10.30;99.90;;;;;;5049603;28;20025;-83
2022/09/25 00:28:39;;;;;;;22.85;17.70;;;10.30;99.90;;;;;;5048783;28;20135;-83
2022/09/25 00:31:06;;;;;;;37.25;18.60;;;10.30;99.90;;;;;;5048935;28;20033;-82
2022/09/25 00:33:33;;;;;;;20.95;17.90;;;10.30;99.90;;;;;;5048888;28;20025;-83
2022/09/25 00:36:06;;;;;;;22.65;18.02;;;10.30;99.90;;;;;;5049219;28;20425;-83
2022/09/25 00:38:33;;;;;;;78.38;19.35;;;10.30;99.90;;;;;;5048364;28;20036;-82
2022/09/25 00:40:59;;;;;;;38.15;18.58;;;10.30;99.90;;;;;;5049488;28;20029;-83
2022/09/25 00:43:40;;;;;;;31.38;17.05;;;10.20;99.90;;;;;;5048394;28;20056;-83
2022/09/25 00:46:13;;;;;;;25.13;17.42;;;10.20;99.90;;;;;;5049222;28;20384;-82
2022/09/25 00:49:06;;;;;;;29.88;17.85;;;10.20;99.90;;;;;;5049165;28;20056;-80
2022/09/25 00:51:56;;;;;;;21.33;16.45;;;10.20;99.90;;;;;;5043117;28;20041;-80
2022/09/25 00:54:35;;;;;;;23.38;16.52;;;10.20;99.90;;;;;;5048988;28;20120;-82
2022/09/25 00:57:04;;;;;;;16.73;15.00;;;10.10;99.90;;;;;;5048647;28;20029;-83
2022/09/25 00:59:34;;;;;;;16.05;13.98;;;10.10;99.90;;;;;;5048334;28;20119;-82
2022/09/25 01:02:00;;;;;;;15.27;12.95;;;10.10;99.90;;;;;;5048805;28;20029;-83
2022/09/25 01:04:29;;;;;;;73.68;13.90;;;10.10;99.90;;;;;;5048465;28;20516;-83
2022/09/25 01:06:55;;;;;;;23.98;12.13;;;10.10;99.90;;;;;;5048554;28;20029;-82
2022/09/25 01:09:22;;;;;;;14.93;12.75;;;10.00;99.90;;;;;;5048248;28;20029;-82
2022/09/25 01:11:47;;;;;;;19.70;13.13;;;10.00;99.90;;;;;;5048347;28;20048;-82
2022/09/25 01:14:16;;;;;;;75.03;14.55;;;9.90;99.90;;;;;;5048248;28;20048;-82
2022/09/25 01:16:55;;;;;;;38.78;13.15;;;9.90;99.90;;;;;;5048129;28;20040;-82
2022/09/25 01:19:48;;;;;;;14.98;12.30;;;9.90;99.90;;;;;;5046659;28;20807;-83
2022/09/25 01:22:32;;;;;;;13.70;12.27;;;9.90;99.90;;;;;;5048277;28;20421;-82
2022/09/25 01:25:14;;;;;;;14.27;12.73;;;9.90;99.90;;;;;;5046712;28;20032;-82
2022/09/25 01:28:04;;;;;;;14.63;12.63;;;9.90;99.90;;;;;;5047925;28;20044;-82
2022/09/25 01:30:32;;;;;;;13.98;12.57;;;9.90;99.90;;;;;;5047799;28;20492;-82
2022/09/25 01:33:06;;;;;;;13.52;11.98;;;9.90;99.90;;;;;;5048241;28;20090;-82
2022/09/25 01:35:56;;;;;;;14.15;11.48;;;9.90;99.90;;;;;;5047830;28;20063;-82
2022/09/25 01:38:50;;;;;;;14.02;11.75;;;9.90;99.90;;;;;;5047736;28;20494;-82
2022/09/25 01:41:43;;;;;;;13.25;11.85;;;9.80;99.90;;;;;;5048419;28;20033;-83
2022/09/25 01:44:14;;;;;;;15.90;12.60;;;9.80;99.90;;;;;;5047562;28;20102;-83
2022/09/25 01:46:45;;;;;;;14.55;12.50;;;9.80;99.90;;;;;;5048140;28;20024;-82
2022/09/25 01:49:25;;;;;;;14.05;12.55;;;9.70;99.90;;;;;;5046773;28;20520;-82
2022/09/25 01:51:52;;;;;;;15.27;12.00;;;9.70;99.90;;;;;;5045994;28;20028;-83
2022/09/25 01:54:40;;;;;;;15.98;12.27;;;9.60;99.90;;;;;;5047296;28;20040;-82
2022/09/25 01:57:19;;;;;;;14.57;11.73;;;9.60;99.90;;;;;;5046980;28;20029;-83
2022/09/25 01:59:53;;;;;;;12.82;11.32;;;9.60;99.90;;;;;;5047324;28;20056;-82
2022/09/25 02:02:26;;;;;;;12.35;10.73;;;9.60;99.90;;;;;;5046838;28;20035;-82
2022/09/25 02:04:56;;;;;;;14.90;11.77;;;9.60;99.90;;;;;;5047199;28;20035;-82
2022/09/25 02:07:29;;;;;;;12.80;10.77;;;9.50;99.90;;;;;;5047066;28;20543;-82
2022/09/25 02:10:00;;;;;;;11.43;10.32;;;9.50;99.90;;;;;;5046705;28;20021;-76
2022/09/25 02:12:33;;;;;;;18.08;11.20;;;9.50;99.90;;;;;;5047315;28;20363;-76
2022/09/25 02:15:04;;;;;;;13.75;10.88;;;9.50;99.90;;;;;;5047394;28;20036;-76
2022/09/25 02:20:33;;;;;;;10.40;9.38;;;9.50;99.90;;;;;;5047286;28;20086;-76
2022/09/25 02:23:19;;;;;;;9.52;8.63;;;9.50;99.90;;;;;;5047028;28;20112;-76
2022/09/25 02:25:58;;;;;;;11.30;10.00;;;9.40;99.90;;;;;;5045612;28;20028;-76
2022/09/25 02:28:23;;;;;;;14.00;10.02;;;9.40;99.90;;;;;;5046907;28;20428;-76
2022/09/25 02:30:53;;;;;;;10.40;9.40;;;9.40;99.90;;;;;;5047026;28;20041;-76
2022/09/25 02:33:19;;;;;;;11.07;9.98;;;9.40;99.90;;;;;;5046899;28;20108;-76
2022/09/25 02:35:44;;;;;;;10.63;9.55;;;9.40;99.90;;;;;;5046900;28;20450;-76
2022/09/25 02:38:10;;;;;;;10.90;8.45;;;9.40;99.90;;;;;;5046681;28;20436;-76
2022/09/25 02:40:45;;;;;;;9.70;8.70;;;9.40;99.90;;;;;;5046461;28;20079;-76
2022/09/25 02:43:30;;;;;;;8.60;7.80;;;9.40;99.90;;;;;;5046820;28;20095;-76
2022/09/25 02:46:01;;;;;;;9.55;7.93;;;9.40;99.90;;;;;;5046700;28;20177;-80
2022/09/25 02:48:27;;;;;;;8.93;8.10;;;9.40;99.90;;;;;;5046468;28;20092;-80
2022/09/25 02:51:07;;;;;;;9.07;8.17;;;9.40;99.90;;;;;;5044688;28;20040;-80
2022/09/25 02:54:23;;;;;;;8.52;7.63;;;9.40;99.90;;;;;;5046132;28;20036;-80
2022/09/25 02:56:55;;;;;;;8.87;7.63;;;9.40;99.90;;;;;;5023512;28;20575;-80
2022/09/25 02:59:29;;;;;;;8.57;7.60;;;9.40;99.90;;;;;;5044807;28;20404;-80
2022/09/25 03:01:57;;;;;;;8.27;7.47;;;9.40;99.90;;;;;;5046265;28;20031;-80
2022/09/25 03:04:25;;;;;;;9.53;7.33;;;9.40;99.90;;;;;;5046422;28;20052;-80
2022/09/25 03:06:51;;;;;;;7.95;7.15;;;9.40;99.90;;;;;;5046358;28;20029;-80
2022/09/25 03:09:19;;;;;;;8.35;7.55;;;9.40;99.90;;;;;;5046005;28;20461;-80
2022/09/25 03:11:45;;;;;;;8.70;7.90;;;9.40;99.90;;;;;;5046744;28;20021;-80
2022/09/25 03:14:11;;;;;;;8.98;7.63;;;9.40;99.90;;;;;;5046065;28;20037;-80
2022/09/25 03:16:42;;;;;;;8.13;7.40;;;9.40;99.90;;;;;;5047326;28;20029;-80
2022/09/25 03:19:08;;;;;;;9.27;8.37;;;9.40;99.90;;;;;;5046633;28;20436;-82
2022/09/25 03:21:33;;;;;;;10.53;9.43;;;9.40;99.90;;;;;;5045683;28;20035;-82
2022/09/25 03:23:59;;;;;;;21.00;9.60;;;9.40;99.90;;;;;;5046664;28;20029;-83
2022/09/25 03:26:29;;;;;;;20.60;10.50;;;9.40;99.90;;;;;;5046804;28;20094;-82
2022/09/25 03:28:57;;;;;;;22.52;9.95;;;9.40;99.90;;;;;;5046330;28;20039;-83
2022/09/25 03:31:22;;;;;;;13.60;9.85;;;9.40;99.90;;;;;;5046100;28;20033;-82
2022/09/25 03:33:48;;;;;;;10.90;9.47;;;9.40;99.90;;;;;;5046251;28;20442;-82
2022/09/25 03:36:17;;;;;;;11.98;9.48;;;9.40;99.90;;;;;;5046562;28;20439;-82
2022/09/25 03:38:44;;;;;;;15.73;10.35;;;9.40;99.90;;;;;;5046132;28;20025;-82
2022/09/25 03:41:11;;;;;;;39.60;11.15;;;9.40;99.90;;;;;;5046408;28;20457;-82
2022/09/25 03:43:40;;;;;;;31.33;10.30;;;9.40;99.90;;;;;;5045958;28;20040;-82
2022/09/25 03:46:08;;;;;;;48.75;12.77;;;9.40;99.90;;;;;;5045900;28;20064;-82
2022/09/25 03:48:34;;;;;;;12.63;11.30;;;9.30;99.90;;;;;;5044608;28;20393;-82
2022/09/25 03:51:00;;;;;;;30.33;10.93;;;9.40;99.90;;;;;;5044475;28;20029;-82
2022/09/25 03:53:30;;;;;;;16.27;10.27;;;9.30;99.90;;;;;;5046612;28;20039;-82
2022/09/25 03:55:56;;;;;;;24.83;10.45;;;9.30;99.90;;;;;;5045538;28;20033;-82
2022/09/25 03:58:21;;;;;;;10.90;9.38;;;9.30;99.90;;;;;;5045777;28;20099;-82
2022/09/25 04:00:47;;;;;;;14.20;9.73;;;9.30;99.90;;;;;;5046362;28;20395;-82
2022/09/25 04:03:13;;;;;;;175.75;10.50;;;9.30;99.90;;;;;;5045943;28;20512;-82
2022/09/25 04:05:40;;;;;;;27.25;9.73;;;9.30;99.90;;;;;;5048272;28;20033;-77
2022/09/25 04:08:05;;;;;;;78.15;10.15;;;9.30;99.90;;;;;;5051144;28;20053;-77
2022/09/25 04:10:33;;;;;;;12.73;8.45;;;9.30;99.90;;;;;;5050717;28;20821;-77
2022/09/25 04:12:58;;;;;;;9.55;8.55;;;9.30;99.90;;;;;;5050163;28;20440;-77
2022/09/25 04:15:24;;;;;;;16.83;8.17;;;9.20;99.90;;;;;;5050731;28;20033;-77
2022/09/25 04:17:51;;;;;;;8.30;7.50;;;9.30;99.90;;;;;;5050428;28;20389;-77
2022/09/25 04:20:18;;;;;;;10.77;8.20;;;9.30;99.90;;;;;;5049712;28;20021;-77
2022/09/25 04:22:43;;;;;;;11.03;8.03;;;9.30;99.90;;;;;;5050382;28;20033;-77
2022/09/25 04:25:09;;;;;;;11.30;7.57;;;9.30;99.90;;;;;;5050178;28;20033;-77
2022/09/25 04:27:35;;;;;;;35.77;8.77;;;9.30;99.90;;;;;;5050636;28;20470;-77
2022/09/25 04:30:04;;;;;;;210.80;12.17;;;9.20;99.90;;;;;;5050337;28;20055;-77
2022/09/25 04:35:13;;;;;;;19.50;8.70;;;9.30;99.90;;;;;;5049769;28;20068;-77
2022/09/25 04:37:39;;;;;;;103.18;11.20;;;9.30;99.90;;;;;;5050047;28;20064;-77
2022/09/25 04:40:05;;;;;;;47.63;9.15;;;9.30;99.90;;;;;;5050384;28;20033;-77
2022/09/25 04:42:31;;;;;;;9.43;8.50;;;9.30;99.90;;;;;;5049761;28;20029;-77
2022/09/25 04:44:57;;;;;;;11.88;8.40;;;9.30;99.90;;;;;;5050264;28;20115;-77
2022/09/25 04:47:25;;;;;;;15.47;7.90;;;9.30;99.90;;;;;;5049686;28;20082;-77
2022/09/25 04:49:51;;;;;;;8.20;7.40;;;9.30;99.90;;;;;;5048761;28;20035;-76
2022/09/25 04:52:18;;;;;;;9.80;8.77;;;9.30;99.90;;;;;;5048671;28;20052;-76
2022/09/25 04:54:44;;;;;;;10.23;7.80;;;9.30;99.90;;;;;;5048908;28;20025;-76
2022/09/25 04:57:14;;;;;;;8.63;7.83;;;9.30;99.90;;;;;;5048675;28;20049;-76
2022/09/25 04:59:40;;;;;;;9.20;7.93;;;9.30;99.90;;;;;;5048868;28;20044;-76
2022/09/25 05:02:05;;;;;;;9.37;7.47;;;9.30;99.90;;;;;;5048825;28;20458;-76
2022/09/25 05:04:31;;;;;;;11.87;8.33;;;9.30;99.90;;;;;;5048539;28;20091;-76
2022/09/25 05:06:57;;;;;;;19.77;9.93;;;9.30;99.90;;;;;;5048306;28;20033;-76
2022/09/25 05:09:22;;;;;;;24.17;9.80;;;9.30;99.90;;;;;;5048397;28;20052;-76
2022/09/25 05:11:48;;;;;;;13.83;10.20;;;9.30;99.90;;;;;;5048509;28;20079;-76
2022/09/25 05:14:13;;;;;;;24.97;10.23;;;9.30;99.90;;;;;;5046643;28;20033;-76
2022/09/25 05:16:39;;;;;;;13.48;10.23;;;9.30;99.90;;;;;;5049493;28;20032;-76
2022/09/25 05:19:04;;;;;;;12.43;10.10;;;9.30;99.90;;;;;;5048112;28;20359;-76
2022/09/25 05:21:31;;;;;;;11.23;10.02;;;9.30;99.90;;;;;;5046739;28;20024;-76
2022/09/25 05:23:57;;;;;;;11.93;10.13;;;9.30;99.90;;;;;;5048202;28;20075;-76
2022/09/25 05:26:23;;;;;;;11.53;10.33;;;9.30;99.90;;;;;;5048513;28;20474;-77
2022/09/25 05:28:49;;;;;;;10.52;8.98;;;9.40;99.90;;;;;;5048190;28;20035;-80
2022/09/25 05:31:15;;;;;;;12.07;9.88;;;9.30;99.90;;;;;;5047691;28;20033;-80
2022/09/25 05:33:42;;;;;;;13.03;10.70;;;9.40;99.90;;;;;;5048313;28;20032;-80
2022/09/25 05:36:08;;;;;;;12.97;10.50;;;9.40;99.90;;;;;;5048608;28;20060;-80
2022/09/25 05:38:37;;;;;;;12.95;10.20;;;9.40;99.90;;;;;;5047800;28;20039;-80
2022/09/25 05:41:08;;;;;;;12.95;10.50;;;9.40;99.90;;;;;;5048484;28;20029;-81
2022/09/25 05:43:42;;;;;;;11.02;9.63;;;9.40;99.90;;;;;;5048810;28;20029;-80
2022/09/25 05:46:08;;;;;;;11.52;9.43;;;9.40;99.90;;;;;;5046660;28;20028;-80
2022/09/25 05:48:33;;;;;;;13.40;9.68;;;9.50;99.90;;;;;;5047707;28;20392;-82
2022/09/25 05:50:59;;;;;;;9.52;8.52;;;9.50;99.90;;;;;;5047983;28;20044;-83
2022/09/25 05:53:25;;;;;;;9.10;8.20;;;9.50;99.90;;;;;;5048336;28;20465;-83
2022/09/25 05:56:00;;;;;;;9.73;8.48;;;9.50;99.90;;;;;;5048394;28;20063;-82
2022/09/25 05:58:27;;;;;;;11.15;8.80;;;9.50;99.90;;;;;;5047583;28;20052;-82
2022/09/25 06:00:56;;;;;;;11.30;8.27;;;9.60;99.90;;;;;;5047775;28;20568;-82
2022/09/25 06:03:22;;;;;;;10.98;8.32;;;9.60;99.90;;;;;;5047425;28;20036;-82
2022/09/25 06:05:48;;;;;;;10.13;8.25;;;9.70;99.90;;;;;;5047162;28;20179;-82
2022/09/25 06:08:14;;;;;;;9.25;8.32;;;9.70;99.90;;;;;;5046296;28;20045;-82
2022/09/25 06:10:40;;;;;;;11.35;7.93;;;9.70;99.90;;;;;;5047146;28;20036;-82
2022/09/25 06:13:07;;;;;;;10.00;7.82;;;9.80;99.90;;;;;;5046913;28;20497;-83
2022/09/25 06:15:36;;;;;;;8.70;7.80;;;9.80;99.90;;;;;;5047137;28;20021;-82
2022/09/25 06:18:03;;;;;;;8.23;7.35;;;9.80;99.90;;;;;;5047092;28;20035;-82
2022/09/25 06:20:29;;;;;;;8.50;7.55;;;9.90;99.90;;;;;;5047631;28;20083;-82
2022/09/25 06:22:55;;;;;;;8.90;6.47;;;9.90;99.90;;;;;;5047599;28;20033;-82
2022/09/25 06:25:25;;;;;;;7.80;7.00;;;9.90;99.90;;;;;;5046661;28;20032;-83
2022/09/25 06:27:53;;;;;;;10.18;7.28;;;10.00;99.90;;;;;;5046588;28;20033;-83
2022/09/25 06:30:20;;;;;;;12.38;7.20;;;10.00;99.90;;;;;;5046938;28;20505;-82
2022/09/25 06:32:45;;;;;;;8.30;7.47;;;10.00;99.90;;;;;;5046730;28;20047;-82
2022/09/25 06:35:11;;;;;;;8.88;7.00;;;10.10;99.90;;;;;;5046995;28;20548;-82
2022/09/25 06:37:36;;;;;;;7.00;6.18;;;10.20;99.90;;;;;;5047487;28;20398;-82
2022/09/25 06:40:02;;;;;;;7.55;6.80;;;10.20;99.90;;;;;;5047429;28;20033;-82
2022/09/25 06:42:27;;;;;;;8.02;7.28;;;10.20;99.90;;;;;;5047101;28;20161;-76
2022/09/25 06:44:53;;;;;;;11.82;7.90;;;10.20;99.90;;;;;;5047372;28;20060;-76
2022/09/25 06:47:18;;;;;;;9.80;7.30;;;10.30;99.90;;;;;;5046905;28;20107;-76
2022/09/25 06:49:45;;;;;;;8.23;7.15;;;10.30;99.90;;;;;;5047221;28;20084;-76
2022/09/25 06:52:11;;;;;;;7.50;6.43;;;10.40;99.90;;;;;;5046932;28;20513;-76
2022/09/25 06:54:36;;;;;;;6.60;5.90;;;10.50;99.90;;;;;;5046856;28;20043;-76
2022/09/25 06:57:02;;;;;;;6.82;6.10;;;10.50;99.90;;;;;;5046155;28;20033;-76
2022/09/25 06:59:28;;;;;;;7.72;5.85;;;10.60;99.90;;;;;;5046448;28;20039;-76
2022/09/25 07:01:53;;;;;;;9.45;6.00;;;10.60;99.90;;;;;;5046659;28;20055;-76
2022/09/25 07:04:19;;;;;;;6.70;6.00;;;10.60;99.90;;;;;;5046447;28;20100;-76
2022/09/25 07:06:45;;;;;;;6.15;5.53;;;10.70;99.90;;;;;;5046559;28;20021;-76
2022/09/25 07:09:11;;;;;;;6.30;5.70;;;10.80;99.90;;;;;;5046581;28;20029;-76
2022/09/25 07:11:36;;;;;;;7.40;6.10;;;10.80;99.90;;;;;;5046473;28;20039;-76
2022/09/25 07:14:02;;;;;;;6.20;5.60;;;10.80;99.90;;;;;;5046816;28;20041;-76
2022/09/25 07:16:31;;;;;;;7.70;5.97;;;10.90;99.90;;;;;;5046686;28;20037;-76
2022/09/25 07:18:59;;;;;;;8.75;7.07;;;10.90;99.90;;;;;;5046300;28;20036;-76
2022/09/25 07:21:28;;;;;;;9.30;8.40;;;11.00;99.90;;;;;;5046568;28;20112;-76
2022/09/25 07:23:54;;;;;;;11.00;9.85;;;11.00;99.90;;;;;;5045337;28;20033;-76
2022/09/25 07:26:22;;;;;;;10.65;8.95;;;11.00;99.90;;;;;;5045421;28;20385;-76
2022/09/25 07:28:54;;;;;;;11.52;9.77;;;11.10;99.90;;;;;;5046601;28;20039;-76
2022/09/25 07:31:22;;;;;;;10.82;9.70;;;11.10;99.90;;;;;;5046569;28;20044;-76
2022/09/25 07:33:48;;;;;;;10.82;9.73;;;11.10;99.90;;;;;;5046731;28;20048;-76
2022/09/25 07:36:16;;;;;;;11.88;10.63;;;11.20;99.90;;;;;;5046360;28;20037;-76
2022/09/25 07:38:41;;;;;;;13.23;11.90;;;11.20;99.90;;;;;;5046129;28;20025;-76
2022/09/25 07:41:12;;;;;;;13.65;12.18;;;11.10;99.90;;;;;;5048792;28;20033;-76
2022/09/25 07:43:38;;;;;;;14.10;12.57;;;11.20;99.90;;;;;;5050385;28;20112;-76
2022/09/25 07:46:04;;;;;;;14.82;12.90;;;11.20;99.90;;;;;;5048450;28;20608;-76
2022/09/25 07:48:30;;;;;;;23.00;13.77;;;11.10;99.90;;;;;;5050081;28;20078;-76
2022/09/25 07:51:00;;;;;;;19.00;13.68;;;11.20;99.90;;;;;;5048266;28;20052;-82
2022/09/25 07:53:25;;;;;;;17.95;14.85;;;11.20;99.90;;;;;;5050404;28;20037;-82
2022/09/25 07:55:54;;;;;;;19.23;15.90;;;11.20;99.90;;;;;;5049705;28;20044;-82
2022/09/25 07:58:19;;;;;;;19.73;15.38;;;11.30;99.90;;;;;;5049973;28;20053;-82
2022/09/25 08:00:45;;;;;;;16.45;14.75;;;11.30;99.90;;;;;;5050032;28;20040;-82
2022/09/25 08:03:11;;;;;;;24.08;15.80;;;11.30;99.90;;;;;;5049830;28;20021;-82
2022/09/25 08:05:37;;;;;;;20.25;16.48;;;11.40;99.90;;;;;;5049537;28;20032;-82
2022/09/25 08:08:02;;;;;;;19.33;16.10;;;11.40;99.90;;;;;;5050038;28;20040;-83
2022/09/25 08:10:28;;;;;;;17.08;15.25;;;11.50;99.90;;;;;;5049916;28;20393;-82
2022/09/25 08:12:53;;;;;;;17.77;15.65;;;11.60;99.90;;;;;;5049615;28;20041;-82
2022/09/25 08:15:19;;;;;;;16.90;14.65;;;11.60;99.90;;;;;;5049384;28;20037;-82
2022/09/25 08:17:45;;;;;;;18.88;15.48;;;11.70;99.90;;;;;;5049559;28;20121;-82
2022/09/25 08:20:10;;;;;;;19.00;16.35;;;11.70;99.90;;;;;;5049229;28;20040;-82
2022/09/25 08:22:36;;;;;;;19.90;16.65;;;11.70;99.90;;;;;;5049698;28;20171;-82
2022/09/25 08:25:01;;;;;;;21.15;17.55;;;11.70;99.90;;;;;;5049555;28;20055;-82
2022/09/25 08:27:28;;;;;;;21.17;17.23;;;11.70;99.90;;;;;;5049319;28;20029;-82
2022/09/25 08:29:53;;;;;;;21.13;17.40;;;11.80;99.90;;;;;;5049475;28;20474;-82
2022/09/25 08:32:19;;;;;;;22.80;17.88;;;11.80;99.90;;;;;;5049500;28;20029;-82
2022/09/25 08:34:44;;;;;;;24.90;18.23;;;11.80;99.90;;;;;;5049387;28;20032;-82
2022/09/25 08:37:10;;;;;;;23.63;18.02;;;11.80;99.90;;;;;;5049388;28;20044;-82
2022/09/25 08:39:35;;;;;;;21.45;16.58;;;11.90;99.90;;;;;;5049112;28;20029;-82
2022/09/25 08:42:02;;;;;;;23.63;18.42;;;11.90;99.90;;;;;;5048816;28;20037;-82
2022/09/25 08:44:38;;;;;;;21.20;17.38;;;11.90;99.90;;;;;;5049426;28;20128;-82
2022/09/25 08:50:20;;;;;;;21.80;17.77;;;12.10;99.90;;;;;;5049061;28;20397;-83
2022/09/25 08:52:51;;;;;;;19.08;16.35;;;12.10;99.90;;;;;;5048644;28;20029;-82
2022/09/25 08:56:13;;;;;;;19.95;16.50;;;12.10;99.90;;;;;;5048968;28;20029;-82
2022/09/25 08:58:24;;;;;;;22.15;17.83;;;12.10;99.90;;;;;;5048844;28;20149;-82
2022/09/25 09:01:00;;;;;;;22.60;18.65;;;12.20;99.90;;;;;;5048858;28;20063;-82
2022/09/25 09:03:29;;;;;;;22.48;18.38;;;12.20;99.90;;;;;;5048925;28;20025;-83
2022/09/25 09:06:09;;;;;;;21.33;16.73;;;12.20;99.90;;;;;;5048777;28;20132;-82
2022/09/25 09:08:38;;;;;;;19.35;15.68;;;12.20;99.90;;;;;;5049257;28;20393;-82
2022/09/25 09:11:06;;;;;;;20.80;16.60;;;12.30;99.90;;;;;;5048369;28;20543;-82
2022/09/25 09:13:44;;;;;;;21.98;17.00;;;12.40;99.90;;;;;;5048847;28;20044;-83
2022/09/25 09:16:25;;;;;;;21.05;17.67;;;12.50;99.90;;;;;;5048283;28;20040;-82
2022/09/25 09:18:52;;;;;;;20.38;16.50;;;12.60;99.90;;;;;;5048741;28;20492;-82
2022/09/25 09:21:37;;;;;;;20.00;16.27;;;12.80;99.90;;;;;;5048673;28;20037;-82
2022/09/25 09:24:25;;;;;;;20.17;15.95;;;13.00;99.90;;;;;;5048880;28;20052;-83
2022/09/25 09:27:12;;;;;;;22.80;18.25;;;13.10;99.90;;;;;;5048828;28;20112;-83
2022/09/25 09:29:46;;;;;;;20.77;16.75;;;13.10;99.90;;;;;;5046902;28;20036;-83
2022/09/25 09:32:29;;;;;;;18.55;16.25;;;13.20;99.90;;;;;;5048295;28;20132;-83
2022/09/25 09:35:29;;;;;;;22.25;17.33;;;13.30;99.90;;;;;;5048072;28;20447;-83
2022/09/25 09:38:06;;;;;;;20.20;17.15;;;13.30;99.90;;;;;;5047904;28;20424;-83
2022/09/25 09:40:57;;;;;;;22.30;18.02;;;13.40;99.90;;;;;;5048594;28;20025;-83
2022/09/25 09:43:44;;;;;;;23.05;17.05;;;13.30;99.90;;;;;;5048348;28;20025;-83
2022/09/25 09:46:22;;;;;;;18.60;16.08;;;13.40;99.90;;;;;;5048081;28;20036;-83
2022/09/25 09:49:11;;;;;;;21.63;17.30;;;13.40;99.90;;;;;;5047473;28;20032;-83
2022/09/25 09:51:58;;;;;;;19.48;16.02;;;13.50;99.90;;;;;;5047695;28;20036;-82
2022/09/25 09:54:34;;;;;;;19.55;16.15;;;13.60;99.90;;;;;;5046273;28;20493;-76
2022/09/25 09:57:04;;;;;;;20.85;17.33;;;13.60;99.90;;;;;;5046425;28;20069;-76
2022/09/25 09:59:44;;;;;;;20.95;16.33;;;13.60;99.90;;;;;;5048492;28;20487;-76
2022/09/25 10:02:38;;;;;;;21.73;18.17;;;13.50;99.90;;;;;;5047262;28;20056;-77
2022/09/25 10:05:11;;;;;;;20.50;17.58;;;13.40;99.90;;;;;;5047842;28;20029;-76
2022/09/25 10:07:40;;;;;;;21.05;17.13;;;13.40;99.90;;;;;;5048308;28;20021;-77
2022/09/25 10:10:14;;;;;;;22.27;17.95;;;13.50;99.90;;;;;;5047734;28;20064;-76
2022/09/25 10:12:45;;;;;;;23.92;18.33;;;13.60;99.90;;;;;;5048119;28;20466;-76
2022/09/25 10:15:29;;;;;;;22.23;17.73;;;13.70;99.90;;;;;;5047771;28;20074;-76
2022/09/25 10:17:58;;;;;;;19.85;16.65;;;13.80;99.90;;;;;;5047438;28;20451;-76
2022/09/25 10:20:29;;;;;;;18.65;15.40;;;14.00;99.90;;;;;;5047798;28;20029;-76
2022/09/25 10:23:12;;;;;;;19.13;15.75;;;14.20;99.90;;;;;;5047605;28;20029;-77
2022/09/25 10:25:39;;;;;;;18.67;16.13;;;14.30;99.90;;;;;;5046917;28;20385;-76
2022/09/25 10:28:29;;;;;;;17.48;15.02;;;14.30;99.90;;;;;;5047072;28;20090;-76
2022/09/25 10:30:56;;;;;;;19.52;15.88;;;14.30;99.90;;;;;;5047252;28;20043;-76
2022/09/25 10:33:28;;;;;;;17.80;15.23;;;14.30;99.90;;;;;;5047324;28;20140;-76
2022/09/25 10:35:55;;;;;;;18.65;15.45;;;14.50;99.90;;;;;;5046773;28;20033;-76
2022/09/25 10:38:27;;;;;;;21.85;15.70;;;14.60;99.90;;;;;;5045496;28;20492;-76
2022/09/25 10:41:19;;;;;;;16.98;14.50;;;14.90;99.90;;;;;;5047397;28;20474;-77
2022/09/25 10:43:58;;;;;;;17.20;13.90;;;15.00;99.90;;;;;;5048018;28;20515;-80
2022/09/25 10:52:12;;;;;;;16.40;14.30;;;15.00;99.90;;;;;;5046587;28;20044;-80
2022/09/25 10:54:38;;;;;;;15.60;13.90;;;15.00;99.90;;;;;;5047688;28;20039;-80
2022/09/25 10:57:33;;;;;;;13.80;12.00;;;15.00;99.90;;;;;;5046696;28;20095;-80
2022/09/25 11:00:00;;;;;;;13.90;11.73;;;15.10;99.90;;;;;;5047711;28;20559;-77
2022/09/25 11:02:41;;;;;;;14.85;11.75;;;15.30;99.90;;;;;;5047109;28;20399;-78
2022/09/25 11:05:17;;;;;;;13.65;10.68;;;15.40;99.90;;;;;;5047152;28;20060;-78
2022/09/25 11:07:51;;;;;;;;;;;15.60;99.90;;;;;;5048525;28;20859;-78
2022/09/25 11:10:33;;;;;;;14.10;11.38;;;15.90;99.90;;;;;;5047465;28;19916;-78
2022/09/25 11:13:01;;;;;;;14.43;11.77;;;16.00;99.90;;;;;;5047245;28;20025;-78
2022/09/25 11:15:27;;;;;;;12.85;11.48;;;16.00;99.90;;;;;;5050209;28;20467;-78
2022/09/25 11:17:55;;;;;;;15.85;12.27;;;16.00;99.90;;;;;;5051925;28;20035;-78
2022/09/25 11:20:29;;;;;;;13.70;11.88;;;15.80;99.90;;;;;;5051597;28;20393;-78
2022/09/25 11:23:21;;;;;;;14.15;11.98;;;15.70;99.90;;;;;;5051136;28;20032;-78
2022/09/25 11:26:19;;;;;;;13.25;11.00;;;15.50;99.90;;;;;;5051242;28;20074;-78
2022/09/25 11:29:00;;;;;;;14.73;11.95;;;15.40;99.90;;;;;;5047680;28;20123;-78
2022/09/25 11:32:04;;;;;;;14.90;12.27;;;15.30;99.90;;;;;;5051044;28;20052;-78
2022/09/25 11:34:51;;;;;;;14.65;12.25;;;15.40;99.90;;;;;;5030174;28;20041;-78
2022/09/25 11:37:34;;;;;;;16.17;11.70;;;15.40;99.90;;;;;;5050776;28;20025;-78
2022/09/25 11:43:06;;;;;;;12.27;10.20;;;15.70;99.90;;;;;;5050943;28;20063;-78
2022/09/25 11:45:54;;;;;;;14.57;11.25;;;16.00;99.90;;;;;;5050853;28;20070;-78
2022/09/25 11:48:28;;;;;;;12.77;10.48;;;16.20;99.90;;;;;;5050561;28;20404;-78
2022/09/25 11:51:16;;;;;;;16.40;11.55;;;16.50;99.90;;;;;;5050713;28;20104;-78
2022/09/25 11:54:14;;;;;;;16.05;11.77;;;16.70;99.90;;;;;;5050514;28;20123;-83
2022/09/25 11:56:39;;;;;;;13.75;11.38;;;16.70;99.90;;;;;;5050025;28;20029;-83
2022/09/25 11:59:21;;;;;;;15.77;11.80;;;16.50;99.90;;;;;;5049928;28;20051;-83
2022/09/25 12:02:07;;;;;;;13.20;10.85;;;16.40;99.90;;;;;;5049554;28;20025;-82
2022/09/25 12:05:02;;;;;;;14.07;10.82;;;16.40;99.90;;;;;;5048134;28;20469;-82
2022/09/25 12:07:34;;;;;;;13.50;10.30;;;16.30;99.90;;;;;;5049442;28;20037;-82
2022/09/25 12:10:51;;;;;;;11.27;9.60;;;16.10;99.90;;;;;;5050812;28;20021;-83
2022/09/25 12:13:31;;;;;;;14.07;10.45;;;15.80;99.90;;;;;;5043049;28;20448;-82
2022/09/25 12:16:24;;;;;;;11.43;8.90;;;15.60;99.90;;;;;;5048202;28;20413;-81
2022/09/25 12:19:18;;;;;;;12.30;10.27;;;15.50;99.90;;;;;;5049297;28;20056;-81
2022/09/25 12:22:00;;;;;;;12.38;10.02;;;15.60;99.90;;;;;;5048931;28;20029;-81
2022/09/25 12:24:47;;;;;;;12.45;9.30;;;15.80;99.90;;;;;;5050186;28;20047;-82
2022/09/25 12:27:25;;;;;;;11.45;9.60;;;16.10;99.90;;;;;;5047257;28;20401;-82
2022/09/25 12:30:15;;;;;;;11.02;9.35;;;16.20;99.90;;;;;;5048895;28;20102;-82
2022/09/25 12:32:48;;;;;;;10.57;8.40;;;16.10;99.90;;;;;;5049656;28;20591;-82
2022/09/25 12:35:33;;;;;;;12.15;8.82;;;15.90;99.90;;;;;;5049208;28;20120;-81
2022/09/25 12:38:10;;;;;;;11.88;9.48;;;15.70;99.90;;;;;;5049187;28;20064;-82
2022/09/25 12:40:37;;;;;;;9.90;7.82;;;15.60;99.90;;;;;;5047741;28;20568;-82
2022/09/25 12:43:10;;;;;;;10.30;8.02;;;15.50;99.90;;;;;;5048960;28;20478;-82
2022/09/25 12:46:05;;;;;;;9.43;7.78;;;15.40;99.90;;;;;;5048407;28;20059;-82
2022/09/25 12:48:45;;;;;;;9.57;8.05;;;15.30;99.90;;;;;;5048750;28;20036;-82
2022/09/25 12:51:33;;;;;;;10.90;8.02;;;15.30;99.90;;;;;;5048470;28;20116;-82
2022/09/25 12:54:23;;;;;;;11.95;8.88;;;15.20;99.90;;;;;;5049051;28;20037;-76
2022/09/25 12:56:59;;;;;;;12.65;8.50;;;15.20;99.90;;;;;;5048768;28;20390;-77
2022/09/25 12:59:29;;;;;;;12.32;9.70;;;15.20;99.90;;;;;;5048891;28;20088;-76
2022/09/25 13:02:15;;;;;;;11.98;8.15;;;15.10;99.90;;;;;;5048399;28;20025;-76
2022/09/25 13:04:52;;;;;;;10.82;8.57;;;15.10;99.90;;;;;;5048893;28;20381;-76
2022/09/25 13:07:30;;;;;;;10.25;8.55;;;15.10;99.90;;;;;;5048646;28;20036;-76
2022/09/25 13:09:55;;;;;;;11.65;9.23;;;15.00;99.90;;;;;;5048347;28;20082;-76
2022/09/25 13:12:32;;;;;;;9.45;7.90;;;14.90;99.90;;;;;;5046856;28;20029;-76
2022/09/25 13:15:16;;;;;;;10.73;8.70;;;14.80;99.90;;;;;;5047948;28;20036;-76
2022/09/25 13:17:42;;;;;;;11.05;8.60;;;14.80;99.90;;;;;;5048427;28;20039;-76
2022/09/25 13:20:26;;;;;;;9.82;8.13;;;14.70;99.90;;;;;;5048159;28;20029;-76
2022/09/25 13:23:04;;;;;;;9.52;7.75;;;14.60;99.90;;;;;;5047952;28;20025;-76
2022/09/25 13:25:40;;;;;;;9.23;7.95;;;14.60;99.90;;;;;;5047831;28;20035;-76